createdAt,value
2022-09-12T00:01:21.288Z,99972.06
2022-09-12T00:03:52.193Z,99977.19
2022-09-12T00:06:23.314Z,99966.00
2022-09-12T00:08:51.840Z,99977.47
2022-09-12T00:11:19.904Z,99967.84
2022-09-12T00:13:48.340Z,99967.69
2022-09-12T00:16:20.259Z,99961.63
2022-09-12T00:18:48.620Z,99963.19
2022-09-12T00:21:17.723Z,99975.63
2022-09-12T00:23:46.706Z,99958.53
2022-09-12T00:26:15.079Z,99969.53
2022-09-12T00:28:43.456Z,99971.84
2022-09-12T00:31:14.373Z,99970.97
2022-09-12T00:33:44.889Z,99973.06
2022-09-12T00:36:16.187Z,99971.84
2022-09-12T00:38:45.340Z,99977.22
2022-09-12T00:41:18.493Z,99976.59
2022-09-12T00:43:48.390Z,99966.97
2022-09-12T00:46:27.543Z,99972.81
2022-09-12T00:49:00.868Z,99978.91
2022-09-12T00:51:31.817Z,99966.72
2022-09-12T00:54:04.082Z,99974.78
2022-09-12T00:56:32.439Z,99973.66
2022-09-12T00:59:05.732Z,99967.94
2022-09-12T01:01:33.887Z,99966.72
2022-09-12T01:04:04.344Z,99970.72
2022-09-12T01:06:37.348Z,99972.22
2022-09-12T01:09:06.480Z,99968.69
2022-09-12T01:11:38.137Z,99966.47
2022-09-12T01:14:06.763Z,99968.19
2022-09-12T01:16:37.535Z,99957.69
2022-09-12T01:19:26.555Z,99969.28
2022-09-12T01:22:08.987Z,99972.31
2022-09-12T01:25:09.462Z,99965.75
2022-09-12T01:27:48.003Z,99971.34
2022-09-12T01:30:26.702Z,99965.75
2022-09-12T01:33:20.895Z,99974.53
2022-09-12T01:36:05.447Z,99974.53
2022-09-12T01:38:40.337Z,99977.94
2022-09-12T01:41:16.908Z,99978.91
2022-09-12T01:43:51.963Z,99978.28
2022-09-12T01:46:29.871Z,99977.44
2022-09-12T01:49:03.551Z,99982.44
2022-09-12T01:51:36.771Z,99980.63
2022-09-12T01:54:08.131Z,99988.53
2022-09-12T01:56:39.279Z,99983.50
2022-09-12T01:59:13.951Z,99977.41
2022-09-12T02:01:48.500Z,99983.03
2022-09-12T02:04:21.140Z,99985.06
2022-09-12T02:06:53.017Z,99975.97
2022-09-12T02:09:25.114Z,99971.09
2022-09-12T02:11:57.547Z,99969.13
2022-09-12T02:14:28.911Z,99968.78
2022-09-12T02:17:02.398Z,99965.72
2022-09-12T02:19:38.340Z,99960.84
2022-09-12T02:22:07.907Z,99965.25
2022-09-12T02:24:39.828Z,99963.41
2022-09-12T02:27:13.925Z,99959.75
2022-09-12T02:29:43.636Z,99969.38
2022-09-12T02:32:22.225Z,99953.75
2022-09-12T02:34:59.731Z,99966.94
2022-09-12T02:37:38.544Z,99974.13
2022-09-12T02:40:08.983Z,99978.00
2022-09-12T02:42:37.411Z,99975.34
2022-09-12T02:45:06.372Z,99969.84
2022-09-12T02:47:39.472Z,99975.22
2022-09-12T02:50:09.202Z,99975.06
2022-09-12T02:52:37.899Z,99967.66
2022-09-12T02:55:08.295Z,99969.50
2022-09-12T02:57:36.605Z,99975.44
2022-09-12T03:00:06.541Z,99970.91
2022-09-12T03:02:55.735Z,99973.22
2022-09-12T03:05:33.039Z,99971.19
2022-09-12T03:08:14.173Z,99967.84
2022-09-12T03:11:00.220Z,99963.34
2022-09-12T03:13:34.176Z,99982.50
2022-09-12T03:16:13.438Z,99978.50
2022-09-12T03:18:53.058Z,99975.69
2022-09-12T03:21:29.280Z,99983.22
2022-09-12T03:24:12.459Z,99980.91
2022-09-12T03:26:45.756Z,99985.75
2022-09-12T03:29:15.109Z,99990.50
2022-09-12T03:31:51.416Z,99994.44
2022-09-12T03:34:22.076Z,99988.97
2022-09-12T03:36:50.428Z,99994.66
2022-09-12T03:39:18.594Z,99989.09
2022-09-12T03:41:46.663Z,99988.31
2022-09-12T03:44:14.738Z,99987.59
2022-09-12T03:46:42.763Z,99978.56
2022-09-12T03:49:11.218Z,99978.78
2022-09-12T03:51:41.240Z,99983.72
2022-09-12T03:54:09.394Z,99986.13
2022-09-12T03:56:37.460Z,99986.41
2022-09-12T03:59:06.739Z,99973.47
2022-09-12T04:01:35.622Z,99987.84
2022-09-12T04:04:04.092Z,99986.97
2022-09-12T04:06:32.305Z,99982.44
2022-09-12T04:09:01.907Z,99985.16
2022-09-12T04:11:30.146Z,99990.84
2022-09-12T04:13:58.205Z,99991.63
2022-09-12T04:16:26.289Z,99991.25
2022-09-12T04:18:55.479Z,99983.72
2022-09-12T04:21:25.496Z,99990.06
2022-09-12T04:23:54.023Z,99973.91
2022-09-12T04:26:23.641Z,99979.19
2022-09-12T04:28:54.915Z,99985.66
2022-09-12T04:31:23.617Z,99978.34
2022-09-12T04:33:55.303Z,99985.66
2022-09-12T04:36:24.333Z,99983.47
2022-09-12T04:38:52.645Z,99987.38
2022-09-12T04:41:24.909Z,99979.94
2022-09-12T04:43:54.635Z,99981.06
2022-09-12T04:46:22.728Z,99990.09
2022-09-12T04:48:54.622Z,99989.59
2022-09-12T04:51:28.067Z,99991.06
2022-09-12T04:53:57.709Z,99986.94
2022-09-12T04:56:27.945Z,99989.63
2022-09-12T04:58:58.257Z,99984.88
2022-09-12T05:01:26.961Z,100002.41
2022-09-12T05:03:56.003Z,99999.66
2022-09-12T05:06:25.638Z,99992.94
2022-09-12T05:08:56.018Z,99997.19
2022-09-12T05:11:36.836Z,100001.34
2022-09-12T05:14:15.743Z,99997.19
2022-09-12T05:16:48.569Z,100008.53
2022-09-12T05:19:17.260Z,100015.75
2022-09-12T05:21:45.426Z,100014.56
2022-09-12T05:24:13.457Z,100016.50
2022-09-12T05:26:41.519Z,100014.56
2022-09-12T05:29:09.615Z,100019.19
2022-09-12T05:31:39.185Z,100028.28
2022-09-12T05:34:07.302Z,100032.81
2022-09-12T05:36:35.596Z,100036.81
2022-09-12T05:39:04.623Z,100037.66
2022-09-12T05:41:34.167Z,100047.31
2022-09-12T05:44:04.372Z,100048.41
2022-09-12T05:46:37.247Z,100049.63
2022-09-12T05:49:08.536Z,100049.53
2022-09-12T05:51:38.401Z,100037.13
2022-09-12T05:54:08.891Z,100040.97
2022-09-12T05:56:40.201Z,100044.50
2022-09-12T05:59:13.079Z,100048.59
2022-09-12T06:01:41.282Z,100045.56
2022-09-12T06:04:10.837Z,100045.75
2022-09-12T06:06:41.804Z,100036.88
2022-09-12T06:09:12.819Z,100046.97
2022-09-12T06:11:44.403Z,100043.97
2022-09-12T06:14:15.029Z,100047.81
2022-09-12T06:16:43.494Z,100045.47
2022-09-12T06:19:17.020Z,100045.59
2022-09-12T06:21:45.634Z,100042.84
2022-09-12T06:24:14.067Z,100051.84
2022-09-12T06:26:43.904Z,100045.13
2022-09-12T06:29:13.415Z,100061.53
2022-09-12T06:31:43.541Z,100052.31
2022-09-12T06:34:14.039Z,100047.44
2022-09-12T06:36:45.302Z,100069.31
2022-09-12T06:39:14.693Z,100053.66
2022-09-12T06:41:44.227Z,100049.00
2022-09-12T06:44:16.132Z,100061.56
2022-09-12T06:46:44.694Z,100059.28
2022-09-12T06:49:13.471Z,100064.88
2022-09-12T06:51:43.359Z,100064.03
2022-09-12T06:54:13.985Z,100063.97
2022-09-12T06:56:42.138Z,100047.91
2022-09-12T06:59:10.589Z,100055.56
2022-09-12T07:01:40.105Z,100061.28
2022-09-12T07:04:08.643Z,100060.56
2022-09-12T07:06:38.989Z,100063.88
2022-09-12T07:09:10.617Z,100067.00
2022-09-12T07:11:40.665Z,100064.84
2022-09-12T07:14:11.379Z,100064.78
2022-09-12T07:16:39.604Z,100059.97
2022-09-12T07:19:09.390Z,100068.50
2022-09-12T07:21:40.343Z,100072.47
2022-09-12T07:24:11.286Z,100076.53
2022-09-12T07:26:42.254Z,100074.78
2022-09-12T07:32:05.915Z,100077.09
2022-09-12T07:34:35.002Z,100087.69
2022-09-12T07:37:03.145Z,100087.03
2022-09-12T07:39:32.942Z,100079.81
2022-09-12T07:42:01.555Z,100081.13
2022-09-12T07:44:29.684Z,100072.59
2022-09-12T07:46:57.802Z,100075.59
2022-09-12T07:49:26.232Z,100069.19
2022-09-12T07:51:55.293Z,100068.16
2022-09-12T07:54:23.524Z,100061.78
2022-09-12T07:56:53.080Z,100075.72
2022-09-12T07:59:41.820Z,100071.75
2022-09-12T08:02:17.249Z,100071.31
2022-09-12T08:04:47.791Z,100064.97
2022-09-12T08:07:15.915Z,100068.09
2022-09-12T08:09:45.285Z,100063.97
2022-09-12T08:12:16.571Z,100070.47
2022-09-12T08:14:45.022Z,100074.63
2022-09-12T08:17:14.329Z,100076.72
2022-09-12T08:19:43.881Z,100075.06
2022-09-12T08:22:12.213Z,100072.06
2022-09-12T08:24:40.752Z,100076.91
2022-09-12T08:27:09.330Z,100068.09
2022-09-12T08:29:38.805Z,100077.03
2022-09-12T08:32:07.286Z,100072.06
2022-09-12T08:34:35.975Z,100056.72
2022-09-12T08:37:04.180Z,100065.34
2022-09-12T08:39:32.751Z,100068.63
2022-09-12T08:42:03.812Z,100066.00
2022-09-12T08:44:58.598Z,100064.91
2022-09-12T08:47:30.016Z,100057.34
2022-09-12T08:50:12.661Z,100055.63
2022-09-12T08:52:48.395Z,100060.00
2022-09-12T08:55:26.681Z,100061.69
2022-09-12T08:57:55.831Z,100059.69
2022-09-12T09:00:32.891Z,100066.88
2022-09-12T09:03:26.904Z,100069.59
2022-09-12T09:06:02.016Z,100063.28
2022-09-12T09:08:58.800Z,100059.00
2022-09-12T09:11:40.240Z,100059.72
2022-09-12T09:14:52.243Z,100049.38
2022-09-12T09:17:26.660Z,100036.34
2022-09-12T09:20:02.600Z,100044.16
2022-09-12T09:22:39.859Z,100044.69
2022-09-12T09:25:14.612Z,100049.34
2022-09-12T09:27:47.901Z,100065.59
2022-09-12T09:30:17.921Z,100057.31
2022-09-12T09:32:53.888Z,100051.72
2022-09-12T09:35:36.238Z,100049.03
2022-09-12T09:38:16.759Z,100046.72
2022-09-12T09:40:51.019Z,100040.19
2022-09-12T09:43:23.818Z,100054.22
2022-09-12T09:45:53.993Z,100045.63
2022-09-12T09:48:26.130Z,100047.97
2022-09-12T09:50:54.284Z,100048.41
2022-09-12T09:53:34.277Z,100070.00
2022-09-12T09:56:07.164Z,100055.81
2022-09-12T09:58:36.853Z,100024.06
2022-09-12T10:01:07.385Z,100044.84
2022-09-12T10:03:40.379Z,100043.69
2022-09-12T10:06:23.235Z,100044.41
2022-09-12T10:08:52.170Z,100045.53
2022-09-12T10:11:22.972Z,100037.63
2022-09-12T10:13:56.862Z,100044.19
2022-09-12T10:16:27.888Z,100031.44
2022-09-12T10:18:58.947Z,100032.78
2022-09-12T10:21:32.804Z,100046.00
2022-09-12T10:24:15.865Z,100039.50
2022-09-12T10:26:53.255Z,100039.91
2022-09-12T10:29:28.680Z,100054.44
2022-09-12T10:32:07.214Z,100061.78
2022-09-12T10:34:43.045Z,100064.25
2022-09-12T10:37:18.839Z,100041.91
2022-09-12T10:39:53.860Z,100051.03
2022-09-12T10:42:50.789Z,100048.84
2022-09-12T10:45:29.143Z,100043.50
2022-09-12T10:48:02.068Z,100044.84
2022-09-12T10:50:38.125Z,100048.66
2022-09-12T10:53:20.415Z,100041.91
2022-09-12T10:56:03.915Z,100051.28
2022-09-12T10:58:53.695Z,100043.44
2022-09-12T11:01:38.005Z,100039.59
2022-09-12T11:04:47.818Z,100031.50
2022-09-12T11:07:30.459Z,100025.56
2022-09-12T11:10:08.383Z,100035.06
2022-09-12T11:12:44.802Z,100026.38
2022-09-12T11:15:36.463Z,100032.50
2022-09-12T11:18:19.066Z,100023.31
2022-09-12T11:21:10.581Z,100017.72
2022-09-12T11:24:02.331Z,100021.56
2022-09-12T11:26:44.812Z,100019.78
2022-09-12T11:29:21.645Z,100015.19
2022-09-12T11:32:11.500Z,100018.09
2022-09-12T11:34:50.983Z,100021.47
2022-09-12T11:37:44.129Z,100019.28
2022-09-12T11:40:29.050Z,100027.25
2022-09-12T11:43:04.455Z,100022.94
2022-09-12T11:45:39.875Z,100023.72
2022-09-12T11:48:14.300Z,100001.50
2022-09-12T11:50:42.537Z,100030.81
2022-09-12T11:53:18.160Z,100012.31
2022-09-12T11:55:56.192Z,100016.06
2022-09-12T11:58:29.261Z,100021.41
2022-09-12T12:01:03.811Z,100016.16
2022-09-12T12:03:38.307Z,100025.69
2022-09-12T12:06:12.892Z,100024.31
2022-09-12T12:08:42.748Z,100023.13
2022-09-12T12:11:30.490Z,100014.16
2022-09-12T12:14:02.219Z,100005.19
2022-09-12T12:16:32.527Z,100018.50
2022-09-12T12:19:02.270Z,100012.31
2022-09-12T12:21:41.317Z,100010.50
2022-09-12T12:24:19.094Z,100003.25
2022-09-12T12:27:00.894Z,100008.78
2022-09-12T12:29:45.970Z,100004.28
2022-09-12T12:32:27.641Z,99998.16
2022-09-12T12:35:18.548Z,99993.22
2022-09-12T12:37:56.385Z,100003.88
2022-09-12T12:40:30.308Z,100005.94
2022-09-12T12:43:20.272Z,99998.19
2022-09-12T12:46:02.573Z,99991.69
2022-09-12T12:48:35.348Z,100001.03
2022-09-12T12:51:32.020Z,99993.78
2022-09-12T12:54:02.310Z,100004.75
2022-09-12T12:56:41.438Z,99991.88
2022-09-12T12:59:24.184Z,99989.72
2022-09-12T13:01:56.802Z,99988.22
2022-09-12T13:04:28.674Z,99979.09
2022-09-12T13:07:05.768Z,99991.38
2022-09-12T13:09:39.997Z,100002.25
2022-09-12T13:12:11.078Z,100000.41
2022-09-12T13:14:52.654Z,100000.53
2022-09-12T13:17:29.261Z,99995.88
2022-09-12T13:20:27.193Z,100001.28
2022-09-12T13:22:56.790Z,99985.56
2022-09-12T13:25:31.623Z,99988.94
2022-09-12T13:28:03.647Z,99980.94
2022-09-12T13:30:36.103Z,99992.00
2022-09-12T13:33:17.849Z,99986.25
2022-09-12T13:36:11.732Z,99962.69
2022-09-12T13:38:54.467Z,99974.41
2022-09-12T13:41:39.829Z,99972.38
2022-09-12T13:44:13.541Z,99969.41
2022-09-12T13:46:44.043Z,99964.03
2022-09-12T13:49:23.972Z,99959.31
2022-09-12T13:52:02.731Z,99963.41
2022-09-12T13:54:32.430Z,99951.19
2022-09-12T13:57:00.841Z,99964.41
2022-09-12T13:59:29.188Z,99956.28
2022-09-12T14:01:58.931Z,99954.28
2022-09-12T14:04:45.272Z,99955.66
2022-09-12T14:07:20.253Z,99955.50
2022-09-12T14:09:55.820Z,99951.09
2022-09-12T14:12:30.249Z,99947.88
2022-09-12T14:14:58.530Z,99948.38
2022-09-12T14:17:31.544Z,99942.94
2022-09-12T14:20:03.364Z,99941.25
2022-09-12T14:22:33.096Z,99939.56
2022-09-12T14:25:02.122Z,99941.06
2022-09-12T14:27:43.154Z,99935.16
2022-09-12T14:30:24.815Z,99933.25
2022-09-12T14:33:21.185Z,99954.81
2022-09-12T14:35:51.575Z,99940.72
2022-09-12T14:38:27.455Z,99948.53
2022-09-12T14:41:02.502Z,99938.03
2022-09-12T14:43:32.944Z,99945.16
2022-09-12T14:46:04.553Z,99944.63
2022-09-12T14:48:38.463Z,99942.25
2022-09-12T14:51:09.723Z,99942.75
2022-09-12T14:53:39.417Z,99933.25
2022-09-12T14:56:10.504Z,99944.13
2022-09-12T14:58:39.953Z,99947.16
2022-09-12T15:01:24.825Z,99937.69
2022-09-12T15:03:57.424Z,99936.66
2022-09-12T15:06:29.792Z,99939.72
2022-09-12T15:09:00.740Z,99931.94
2022-09-12T15:11:29.118Z,99938.88
2022-09-12T15:13:57.674Z,99947.69
2022-09-12T15:16:26.047Z,99943.41
2022-09-12T15:18:55.804Z,99941.09
2022-09-12T15:21:23.844Z,99947.84
2022-09-12T15:23:53.880Z,99940.25
2022-09-12T15:26:24.120Z,99939.34
2022-09-12T15:28:52.609Z,99943.41
2022-09-12T15:31:26.723Z,99937.13
2022-09-12T15:33:58.074Z,99939.44
2022-09-12T15:36:28.583Z,99933.19
2022-09-12T15:38:57.472Z,99943.16
2022-09-12T15:41:30.708Z,99944.34
2022-09-12T15:43:58.572Z,99942.00
2022-09-12T15:46:26.694Z,99939.25
2022-09-12T15:48:56.159Z,99944.34
2022-09-12T15:51:24.788Z,99949.41
2022-09-12T15:53:53.972Z,99948.22
2022-09-12T15:56:23.511Z,99949.06
2022-09-12T15:59:00.060Z,99952.09
2022-09-12T16:01:29.907Z,99944.97
2022-09-12T16:03:59.686Z,99948.69
2022-09-12T16:06:33.560Z,99947.69
2022-09-12T16:09:03.089Z,99954.75
2022-09-12T16:11:31.243Z,99958.13
2022-09-12T16:14:00.056Z,99949.91
2022-09-12T16:16:28.147Z,99957.00
2022-09-12T16:18:56.302Z,99949.19
2022-09-12T16:21:26.561Z,99945.13
2022-09-12T16:23:54.668Z,99955.63
2022-09-12T16:26:23.191Z,99960.00
2022-09-12T16:28:55.987Z,99951.28
2022-09-12T16:31:25.203Z,99952.84
2022-09-12T16:33:53.520Z,99954.16
2022-09-12T16:36:23.037Z,99951.72
2022-09-12T16:38:54.341Z,99963.91
2022-09-12T16:41:26.315Z,99954.94
2022-09-12T16:43:55.262Z,99957.50
2022-09-12T16:46:25.322Z,99953.28
2022-09-12T16:48:55.339Z,99953.22
2022-09-12T16:51:26.140Z,99959.44
2022-09-12T16:53:56.558Z,99932.41
2022-09-12T16:56:25.347Z,99943.16
2022-09-12T16:58:54.336Z,99943.88
2022-09-12T17:01:24.596Z,99942.72
2022-09-12T17:03:54.620Z,99946.94
2022-09-12T17:06:23.202Z,99953.44
2022-09-12T17:08:53.767Z,99947.19
2022-09-12T17:11:24.939Z,99950.94
2022-09-12T17:14:11.735Z,99957.53
2022-09-12T17:16:42.825Z,99959.91
2022-09-12T17:19:16.312Z,99961.91
2022-09-12T17:21:45.510Z,99958.72
2022-09-12T17:24:13.645Z,99962.81
2022-09-12T17:26:43.522Z,99964.00
2022-09-12T17:29:13.972Z,99967.13
2022-09-12T17:31:42.844Z,99972.97
2022-09-12T17:34:14.356Z,99970.91
2022-09-12T17:36:44.328Z,99978.75
2022-09-12T17:39:13.704Z,99988.22
2022-09-12T17:41:43.820Z,99995.75
2022-09-12T17:44:13.935Z,99993.00
2022-09-12T17:46:42.623Z,100000.91
2022-09-12T17:49:13.737Z,99998.09
2022-09-12T17:51:43.558Z,99991.19
2022-09-12T17:54:14.381Z,100000.69
2022-09-12T17:56:47.406Z,99994.88
2022-09-12T17:59:17.532Z,99995.63
2022-09-12T18:02:03.086Z,100002.44
2022-09-12T18:04:32.858Z,100003.59
2022-09-12T18:07:04.174Z,100007.72
2022-09-12T18:09:32.725Z,100019.25
2022-09-12T18:12:07.019Z,100010.47
2022-09-12T18:14:35.449Z,100021.38
2022-09-12T18:17:03.633Z,100028.06
2022-09-12T18:19:31.998Z,100031.03
2022-09-12T18:22:00.076Z,100031.50
2022-09-12T18:24:28.860Z,100029.47
2022-09-12T18:26:57.964Z,100029.78
2022-09-12T18:29:28.047Z,100024.78
2022-09-12T18:31:56.320Z,100028.06
2022-09-12T18:34:24.436Z,100029.91
2022-09-12T18:36:54.930Z,100027.78
2022-09-12T18:39:27.408Z,100032.00
2022-09-12T18:41:56.192Z,100035.09
2022-09-12T18:44:24.314Z,100034.25
2022-09-12T18:46:53.950Z,100036.56
2022-09-12T18:49:22.169Z,100044.78
2022-09-12T18:51:50.507Z,100045.03
2022-09-12T18:54:19.078Z,100037.19
2022-09-12T18:56:47.769Z,100033.94
2022-09-12T18:59:16.104Z,100039.59
2022-09-12T19:01:45.159Z,100037.88
2022-09-12T19:04:16.328Z,100047.91
2022-09-12T19:06:46.394Z,100049.09
2022-09-12T19:09:17.325Z,100042.81
2022-09-12T19:11:49.851Z,100046.41
2022-09-12T19:14:20.091Z,100036.81
2022-09-12T19:16:48.210Z,100040.84
2022-09-12T19:19:18.184Z,100038.25
2022-09-12T19:21:47.039Z,100047.16
2022-09-12T19:24:17.050Z,100047.25
2022-09-12T19:26:45.708Z,100046.66
2022-09-12T19:29:14.748Z,100050.28
2022-09-12T19:31:43.350Z,100048.00
2022-09-12T19:34:13.213Z,100045.38
2022-09-12T19:36:45.903Z,100050.22
2022-09-12T19:39:16.669Z,100044.38
2022-09-12T19:41:45.639Z,100044.78
2022-09-12T19:44:13.945Z,100046.78
2022-09-12T19:46:42.197Z,100045.13
2022-09-12T19:49:11.777Z,100047.44
2022-09-12T19:51:39.982Z,100043.63
2022-09-12T19:54:09.704Z,100045.03
2022-09-12T19:56:38.273Z,100060.06
2022-09-12T19:59:07.108Z,100045.09
2022-09-12T20:01:37.064Z,100041.41
2022-09-12T20:04:05.594Z,100049.91
2022-09-12T20:06:33.668Z,100041.38
2022-09-12T20:09:01.752Z,100044.81
2022-09-12T20:11:31.567Z,100041.66
2022-09-12T20:13:59.639Z,100033.66
2022-09-12T20:16:29.614Z,100040.97
2022-09-12T20:19:00.166Z,100040.63
2022-09-12T20:21:32.886Z,100034.47
2022-09-12T20:24:02.849Z,100034.06
2022-09-12T20:26:32.661Z,100039.72
2022-09-12T20:29:00.949Z,100035.13
2022-09-12T20:31:30.347Z,100033.78
2022-09-12T20:33:59.012Z,100035.13
2022-09-12T20:36:27.569Z,100038.03
2022-09-12T20:38:57.852Z,100043.84
2022-09-12T20:41:27.108Z,100042.06
2022-09-12T20:43:57.876Z,100051.06
2022-09-12T20:46:27.679Z,100055.81
2022-09-12T20:48:56.094Z,100064.47
2022-09-12T20:51:24.654Z,100067.53
2022-09-12T20:53:55.111Z,100071.31
2022-09-12T20:56:23.655Z,100064.88
2022-09-12T20:58:52.029Z,100064.69
2022-09-12T21:01:21.800Z,100060.31
2022-09-12T21:03:50.236Z,100054.69
2022-09-12T21:06:19.291Z,100057.94
2022-09-12T21:08:48.614Z,100063.56
2022-09-12T21:11:17.702Z,100076.88
2022-09-12T21:13:46.051Z,100079.19
2022-09-12T21:16:16.010Z,100078.66
2022-09-12T21:18:45.719Z,100074.50
2022-09-12T21:21:15.771Z,100075.97
2022-09-12T21:23:43.868Z,100084.78
2022-09-12T21:26:12.285Z,100079.44
2022-09-12T21:28:40.469Z,100079.94
2022-09-12T21:31:08.725Z,100097.00
2022-09-12T21:33:37.012Z,100094.53
2022-09-12T21:36:07.351Z,100101.78
2022-09-12T21:38:35.789Z,100097.19
2022-09-12T21:41:05.878Z,100100.56
2022-09-12T21:43:33.954Z,100083.72
2022-09-12T21:46:02.968Z,100107.75
2022-09-12T21:48:31.492Z,100108.13
2022-09-12T21:50:59.619Z,100110.31
2022-09-12T21:53:29.562Z,100122.50
2022-09-12T21:56:02.318Z,100111.03
2022-09-12T21:58:31.115Z,100127.13
2022-09-12T22:00:59.770Z,100126.06
2022-09-12T22:03:28.281Z,100123.03
2022-09-12T22:06:00.137Z,100130.84
2022-09-12T22:08:30.700Z,100123.31
2022-09-12T22:11:00.922Z,100123.78
2022-09-12T22:13:32.294Z,100120.63
2022-09-12T22:16:03.104Z,100110.88
2022-09-12T22:18:34.384Z,100114.75
2022-09-12T22:21:04.414Z,100122.19
2022-09-12T22:23:51.343Z,100117.41
2022-09-12T22:26:19.546Z,100108.13
2022-09-12T22:28:48.242Z,100113.13
2022-09-12T22:31:17.073Z,100105.78
2022-09-12T22:33:45.751Z,100116.88
2022-09-12T22:36:14.768Z,100109.31
2022-09-12T22:38:44.221Z,100107.09
2022-09-12T22:41:13.200Z,100115.09
2022-09-12T22:43:41.909Z,100106.19
2022-09-12T22:46:10.917Z,100115.69
2022-09-12T22:48:39.183Z,100115.03
2022-09-12T22:51:07.853Z,100116.34
2022-09-12T22:53:36.845Z,100122.59
2022-09-12T22:56:07.018Z,100124.94
2022-09-12T22:58:37.281Z,100119.72
2022-09-12T23:01:06.827Z,100118.25
2022-09-12T23:03:35.466Z,100118.56
2022-09-12T23:06:04.277Z,100113.50
2022-09-12T23:08:32.664Z,100107.91
2022-09-12T23:11:04.292Z,100125.06
2022-09-12T23:13:34.106Z,100114.75
2022-09-12T23:16:04.742Z,100124.09
2022-09-12T23:18:35.429Z,100116.16
2022-09-12T23:21:06.076Z,100110.31
2022-09-12T23:23:34.683Z,100104.94
2022-09-12T23:26:04.528Z,100115.13
2022-09-12T23:28:34.585Z,100118.56
2022-09-12T23:31:03.821Z,100104.03
2022-09-12T23:33:33.613Z,100105.72
2022-09-12T23:36:02.299Z,100104.03
2022-09-12T23:38:30.924Z,100101.88
2022-09-12T23:40:59.561Z,100106.38
2022-09-12T23:43:28.275Z,100109.41
2022-09-12T23:45:58.000Z,100108.22
2022-09-12T23:48:26.564Z,100103.44
2022-09-12T23:50:55.110Z,100106.75
2022-09-12T23:53:23.368Z,100116.69
2022-09-12T23:55:51.506Z,100116.59
2022-09-12T23:58:19.611Z,100115.63
